Time;durP1;ratioP1;P1;durP2;ratioP2;P2;SDS_P1;SDS_P2;PMS_P1;PMS_P2;Temp;Humidity;BMP_temperature;BMP_pressure;BME280_temperature;BME280_humidity;BME280_pressure;Samples;Min_cycle;Max_cycle;Signal;HPM_P1;HPM_P2
2021/05/27 00:07:21;;;;;;;;;;;;;;;;;;;;;
2021/05/27 00:13:21;;;;;;;;;;;;;;;;;;;;;
2021/05/27 00:19:07;;;;;;;;;;;;;;;;;;;;;
2021/05/27 00:24:40;;;;;;;17.73;7.82;;;;;;;10.06;100.00;101300.03;10266474;28;20050;-85
2021/05/27 00:30:33;;;;;;;;;;;;;;;;;;;;;
2021/05/27 00:36:31;;;;;;;;;;;;;;;;;;;;;
2021/05/27 00:48:17;;;;;;;;;;;;;;;;;;;;;
2021/05/27 00:53:29;;;;;;;17.85;8.23;;;;;;;11.15;100.00;101467.50;10263206;28;20039;-86
2021/05/27 00:59:06;;;;;;;22.75;8.50;;;;;;;11.69;100.00;101526.47;10294993;28;20113;-85
2021/05/27 01:04:32;;;;;;;21.65;10.48;;;;;;;11.60;100.00;101528.56;10269112;28;20093;-85
2021/05/27 01:09:43;;;;;;;22.77;8.73;;;;;;;10.56;100.00;101380.59;10239275;28;20052;-85
2021/05/27 01:21:27;;;;;;;21.35;9.38;;;;;;;11.66;100.00;101532.56;10185713;28;20078;-85
2021/05/27 01:27:10;;;;;;;25.27;10.07;;;;;;;10.91;100.00;101401.59;10223465;28;20500;-85
2021/05/27 01:32:36;;;;;;;28.58;10.15;;;;;;;10.39;100.00;101348.44;10264966;28;20129;-85
2021/05/27 01:44:19;;;;;;;26.05;9.13;;;;;;;11.24;100.00;101457.28;10280209;28;20046;-85
2021/05/27 01:49:21;;;;;;;24.98;10.85;;;;;;;11.19;100.00;101481.88;10287594;28;20037;-86
2021/05/27 01:55:02;;;;;;;32.28;12.30;;;;;;;11.72;100.00;101552.84;10273292;28;20486;-86
2021/05/27 02:00:40;;;;;;;;;;;;;;;;;;;;;
2021/05/27 02:12:16;;;;;;;28.73;11.45;;;;;;;11.11;100.00;101518.03;10235701;28;20488;-86
2021/05/27 02:24:20;;;;;;;24.88;9.30;;;;;;;11.35;100.00;101550.34;10276161;28;20063;-85
2021/05/27 02:30:34;;;;;;;17.58;8.18;;;;;;;11.44;100.00;101555.63;10255280;28;20061;-85
2021/05/27 02:35:52;;;;;;;15.57;6.95;;;;;;;10.63;100.00;101428.66;10250398;28;20078;-86
2021/05/27 02:41:32;;;;;;;;;;;;;;;;;;;;;
2021/05/27 02:47:32;;;;;;;;;;;;;;;;;;;;;
2021/05/27 02:53:32;;;;;;;22.63;8.60;;;;;;;10.11;100.00;101380.81;10252803;28;20364;-86
2021/05/27 02:58:59;;;;;;;18.50;8.02;;;;;;;10.82;100.00;101506.44;10266871;28;20031;-86
2021/05/27 03:05:02;;;;;;;25.05;8.07;;;;;;;10.72;100.00;101506.91;10252742;28;20299;-86
2021/05/27 03:28:46;;;;;;;;;;;;;;;;;;;;;
2021/05/27 03:40:13;;;;;;;16.73;4.53;;;;;;;10.48;98.63;101540.97;10299409;28;20047;-81
2021/05/27 03:45:19;;;;;;;16.70;4.90;;;;;;;10.85;98.39;101576.06;10279355;28;20384;-81
2021/05/27 03:50:23;;;;;;;14.57;4.32;;;;;;;10.81;98.53;101575.16;10242536;28;20035;-81
2021/05/27 03:55:23;;;;;;;17.60;4.50;;;;;;;10.86;98.14;101583.03;10276857;28;20790;-81
2021/05/27 04:00:45;;;;;;;16.27;4.43;;;;;;;10.89;97.29;101598.59;10251005;28;20035;-81
2021/05/27 04:11:05;;;;;;;16.48;4.55;;;;;;;10.57;97.50;101538.94;10279938;28;20054;-82
2021/05/27 04:16:05;;;;;;;11.45;4.38;;;;;;;10.94;97.35;101606.47;10278107;28;20051;-80
2021/05/27 04:21:06;;;;;;;17.60;3.85;;;;;;;11.11;96.64;101612.72;10279977;28;20042;-80
2021/05/27 04:26:11;;;;;;;12.38;3.90;;;;;;;11.04;96.57;101599.00;10274412;28;20046;-81
2021/05/27 04:31:17;;;;;;;22.17;5.88;;;;;;;10.90;96.80;101594.75;10289823;28;20054;-76
2021/05/27 04:36:42;;;;;;;11.98;4.55;;;;;;;10.96;97.57;101609.63;10300498;28;20473;-86
2021/05/27 04:42:21;;;;;;;;;;;;;;;;;;;;;
2021/05/27 05:00:51;;;;;;;;;;;;;;;;;;;;;
2021/05/27 05:13:10;;;;;;;;;;;;;;;;;;;;;
2021/05/27 05:18:40;;;;;;;;;;;;;;;;;;;;;
2021/05/27 05:24:19;;;;;;;18.90;5.68;;;;;;;10.27;95.64;101505.19;10315168;28;20795;-79
2021/05/27 05:29:23;;;;;;;13.18;4.32;;;;;;;11.24;95.32;101651.34;10288211;28;20077;-82
2021/05/27 05:34:26;;;;;;;15.15;4.75;;;;;;;10.60;94.74;101558.31;10266248;28;20064;-81
2021/05/27 05:39:31;;;;;;;16.02;3.97;;;;;;;11.15;95.04;101637.97;10280827;28;20118;-78
2021/05/27 05:44:36;;;;;;;15.93;4.05;;;;;;;11.37;93.96;101659.06;10259259;28;20476;-80
2021/05/27 05:55:40;;;;;;;18.33;5.18;;;;;;;11.27;94.65;101629.81;10269789;28;20042;-85
2021/05/27 06:01:55;;;;;;;16.10;4.78;;;;;;;10.79;95.43;101577.41;10256553;28;20039;-87
2021/05/27 06:44:33;;;;;;;13.13;4.67;;;;;;;11.29;97.62;101627.53;12158698;22;21184670;-86
2021/05/27 06:50:42;;;;;;;;;;;;;;;;;;;;;
2021/05/27 06:56:43;;;;;;;12.45;4.10;;;;;;;11.88;94.37;101733.63;13119950;22;20281;-86
2021/05/27 07:21:03;;;;;;;9.30;3.20;;;;;;;11.35;89.54;101582.84;13082893;22;20028;-87
2021/05/27 07:27:06;;;;;;;;;;;;;;;;;;;;;
2021/05/27 07:45:27;;;;;;;9.73;3.92;;;;;;;12.14;88.16;101644.47;12998372;22;20019;-86
2021/05/27 07:51:27;;;;;;;;;;;;;;;;;;;;;
2021/05/27 08:16:46;;;;;;;10.65;2.70;;;;;;;12.59;86.17;101757.13;12773965;23;20060;-86
2021/05/27 08:22:14;;;;;;;;;;;;;;;;;;;;;
2021/05/27 08:28:22;;;;;;;8.93;3.13;;;;;;;12.81;84.27;101790.19;13008574;22;20078;-85
2021/05/27 08:34:20;;;;;;;11.23;3.38;;;;;;;12.16;84.22;101691.00;13049488;22;20114;-84
2021/05/27 08:39:26;;;;;;;8.23;4.35;;;;;;;12.21;85.00;101708.94;13074593;22;20014;-85
2021/05/27 08:45:09;;;;;;;;;;;;;;;;;;;;;
2021/05/27 08:50:51;;;;;;;9.85;2.83;;;;;;;11.42;85.34;101658.81;13037634;22;20017;-84
2021/05/27 08:56:40;;;;;;;12.43;2.93;;;;;;;11.50;84.71;101677.97;13088186;22;20081;-85
2021/05/27 09:03:00;;;;;;;;;;;;;;;;;;;;;
2021/05/27 09:08:39;;;;;;;11.90;2.72;;;;;;;11.80;83.87;101733.38;13047498;22;20014;-87
2021/05/27 09:14:27;;;;;;;;;;;;;;;;;;;;;
2021/05/27 09:20:45;;;;;;;;;;;;;;;;;;;;;
2021/05/27 09:26:52;;;;;;;13.45;3.42;;;;;;;12.76;82.58;101863.72;13099412;22;20078;-87
2021/05/27 09:37:58;;;;;;;15.27;3.38;;;;;;;11.77;82.92;101693.44;12821907;23;20448;-86
2021/05/27 09:43:27;;;;;;;11.90;3.22;;;;;;;12.53;82.77;101806.56;13042822;22;20502;-86
2021/05/27 09:49:05;;;;;;;9.23;2.60;;;;;;;12.01;81.97;101710.72;13046583;22;20021;-84
2021/05/27 09:54:11;;;;;;;14.88;4.07;;;;;;;12.27;82.80;101781.53;13099564;22;20002;-81
2021/05/27 09:59:14;;;;;;;12.75;3.42;;;;;;;12.57;82.27;101824.50;13098957;22;20191;-81
2021/05/27 10:04:21;;;;;;;13.50;3.33;;;;;;;12.52;83.06;101849.16;13098172;22;20011;-81
2021/05/27 10:09:27;;;;;;;13.25;3.60;;;;;;;11.75;85.51;101768.84;13101795;22;20084;-82
2021/05/27 10:14:45;;;;;;;18.13;5.15;;;;;;;12.66;85.82;101881.28;13060937;22;20039;-82
2021/05/27 10:19:50;;;;;;;17.17;4.78;;;;;;;12.35;83.99;101833.22;13084345;22;20014;-85
2021/05/27 10:25:50;;;;;;;;;;;;;;;;;;;;;
2021/05/27 10:38:32;;;;;;;;;;;;;;;;;;;;;
2021/05/27 10:44:15;;;;;;;;;;;;;;;;;;;;;
2021/05/27 10:50:15;;;;;;;;;;;;;;;;;;;;;
2021/05/27 10:56:31;;;;;;;11.98;3.78;;;;;;;12.35;82.07;101838.63;13094273;22;20014;-86
2021/05/27 11:02:11;;;;;;;;;;;;;;;;;;;;;
2021/05/27 11:14:54;;;;;;;;;;;;;;;;;;;;;
2021/05/27 11:45:59;;;;;;;;;;;;;;;;;;;;;
2021/05/27 11:52:08;;;;;;;16.75;5.35;;;;;;;11.33;84.61;101763.75;12863591;23;20016;-84
2021/05/27 11:58:25;;;;;;;20.80;5.13;;;;;;;11.94;83.99;101867.69;12848422;23;20020;-84
2021/05/27 12:03:46;;;;;;;23.92;5.53;;;;;;;12.03;85.25;101898.94;12879283;23;20007;-82
2021/05/27 12:15:02;;;;;;;14.32;5.25;;;;;;;12.18;82.01;101862.22;13147910;22;20081;-83
2021/05/27 12:27:19;;;;;;;15.32;4.10;;;;;;;13.16;76.10;101892.63;13053806;22;20010;-85
2021/05/27 12:32:39;;;;;;;16.65;4.13;;;;;;;13.85;74.79;101977.31;13091085;22;20405;-84
2021/05/27 12:38:13;;;;;;;14.00;5.38;;;;;;;12.94;73.61;101821.53;13116880;22;19998;-85
2021/05/27 12:43:37;;;;;;;14.02;4.03;;;;;;;13.82;74.64;101989.66;13105594;22;20025;-83
2021/05/27 12:48:52;;;;;;;15.60;4.43;;;;;;;13.64;75.29;101988.47;13160929;22;20093;-78
2021/05/27 13:00:15;;;;;;;;;;;;;;;;;;;;;
2021/05/27 13:05:42;;;;;;;15.52;5.03;;;;;;;12.86;78.18;101933.75;13138279;22;20750;-80
2021/05/27 13:10:43;;;;;;;13.43;4.63;;;;;;;12.33;78.70;101873.44;13165629;22;20003;-78
2021/05/27 13:16:04;;;;;;;20.00;4.97;;;;;;;12.24;79.35;101855.38;13110182;22;20255;-84
2021/05/27 13:21:05;;;;;;;19.05;5.18;;;;;;;12.82;79.83;101976.28;13159470;22;20010;-88
2021/05/27 13:26:14;;;;;;;18.20;5.30;;;;;;;13.36;79.85;102038.25;13108339;22;20002;-80
2021/05/27 13:31:33;;;;;;;16.73;5.00;;;;;;;13.42;79.44;102036.84;13133000;22;20013;-80
2021/05/27 13:36:41;;;;;;;14.77;5.10;;;;;;;13.01;79.39;101995.41;13160270;22;20133;-81
2021/05/27 13:41:42;;;;;;;15.65;4.78;;;;;;;12.84;80.44;101998.41;13130625;22;20045;-82
2021/05/27 13:46:50;;;;;;;16.02;4.60;;;;;;;12.96;80.41;102003.81;13161050;22;20010;-80
2021/05/27 13:51:53;;;;;;;17.45;4.63;;;;;;;13.34;80.06;102024.22;13162142;22;20098;-81
2021/05/27 13:56:54;;;;;;;15.73;4.65;;;;;;;13.39;78.97;102048.41;13161196;22;20054;-83
2021/05/27 14:01:54;;;;;;;21.88;3.72;;;;;;;13.74;77.62;102045.00;13132870;22;20010;-83
2021/05/27 14:06:55;;;;;;;9.82;4.00;;;;;;;14.29;75.24;102051.31;13106976;22;20013;-81
2021/05/27 14:11:55;;;;;;;13.18;3.38;;;;;;;13.92;74.16;102010.88;13129613;22;20121;-83
2021/05/27 14:16:56;;;;;;;10.65;3.53;;;;;;;13.60;75.59;102014.78;13106543;22;20007;-80
2021/05/27 14:21:56;;;;;;;11.35;4.20;;;;;;;13.87;75.48;102062.78;13132532;22;20100;-80
2021/05/27 14:26:57;;;;;;;13.77;4.13;;;;;;;13.38;77.52;102021.59;13129068;22;20022;-80
2021/05/27 14:31:58;;;;;;;16.83;4.32;;;;;;;13.43;78.79;102053.94;13131432;22;20030;-81
2021/05/27 14:36:59;;;;;;;17.00;4.57;;;;;;;13.46;78.86;102075.75;13130801;22;20035;-80
2021/05/27 14:41:59;;;;;;;13.25;4.32;;;;;;;13.41;79.68;102078.72;13160654;22;20494;-80
2021/05/27 14:47:00;;;;;;;13.73;4.05;;;;;;;13.05;79.66;102028.88;13159985;22;20457;-83
2021/05/27 14:52:00;;;;;;;15.27;4.70;;;;;;;12.52;79.45;101956.88;13134861;22;20046;-80
2021/05/27 14:57:01;;;;;;;14.23;4.45;;;;;;;13.25;79.76;102064.28;13137895;22;20003;-81
2021/05/27 15:02:01;;;;;;;17.75;4.90;;;;;;;13.31;79.61;102073.78;13164520;22;20029;-80
2021/05/27 15:07:02;;;;;;;13.88;4.97;;;;;;;13.34;78.64;102083.97;13136379;22;20477;-78
2021/05/27 15:12:03;;;;;;;13.13;3.58;;;;;;;13.17;79.62;102103.22;13133330;22;20037;-78
2021/05/27 15:17:04;;;;;;;12.45;4.18;;;;;;;12.95;82.33;102110.78;13138493;22;20021;-81
2021/05/27 15:22:04;;;;;;;14.10;4.10;;;;;;;12.91;82.23;102109.91;13137921;22;20010;-83
2021/05/27 15:27:05;;;;;;;20.10;5.10;;;;;;;12.56;86.02;102107.72;13165285;22;20578;-82
2021/05/27 15:32:09;;;;;;;19.65;5.18;;;;;;;12.78;85.57;102113.78;13165072;22;20407;-83
2021/05/27 15:37:30;;;;;;;16.83;4.93;;;;;;;12.48;85.20;102049.75;13163911;22;20014;-85
2021/05/27 15:42:56;;;;;;;17.70;4.78;;;;;;;12.88;83.98;102088.88;13112800;22;20628;-84
2021/05/27 15:47:56;;;;;;;14.77;4.43;;;;;;;13.07;83.61;102097.16;13157050;22;20030;-83
2021/05/27 15:53:01;;;;;;;16.70;4.93;;;;;;;12.87;83.04;102081.88;13133674;22;20089;-85
2021/05/27 15:58:03;;;;;;;18.13;4.40;;;;;;;12.93;83.57;102055.28;13134122;22;20005;-83
2021/05/27 16:03:04;;;;;;;14.27;4.17;;;;;;;13.11;82.36;102125.22;13080652;22;20025;-86
2021/05/27 16:08:05;;;;;;;13.07;4.90;;;;;;;12.78;81.46;102067.66;13132493;22;20539;-76
2021/05/27 16:13:06;;;;;;;11.20;3.45;;;;;;;12.94;82.59;102125.50;13162144;22;20013;-83
2021/05/27 16:18:08;;;;;;;16.42;4.22;;;;;;;12.97;83.38;102130.22;13160554;22;20006;-82
2021/05/27 16:23:11;;;;;;;14.15;4.00;;;;;;;12.67;83.29;102084.38;13133465;22;20046;-82
2021/05/27 16:28:12;;;;;;;18.60;3.88;;;;;;;12.40;82.80;102047.97;13106630;22;20301;-82
2021/05/27 16:33:13;;;;;;;10.35;3.20;;;;;;;12.62;83.31;102081.94;13102925;22;20614;-82
2021/05/27 16:38:21;;;;;;;13.38;4.05;;;;;;;11.99;83.63;101973.13;13135959;22;20029;-82
2021/05/27 16:43:41;;;;;;;;;;;;;;;;;;;;;
2021/05/27 16:49:27;;;;;;;;;;;;;;;;;;;;;
2021/05/27 16:54:33;;;;;;;10.50;3.10;;;;;;;12.25;82.41;101989.81;13137701;22;20306;-81
2021/05/27 16:59:34;;;;;;;13.82;3.72;;;;;;;12.86;82.28;102086.50;13130270;22;20011;-82
2021/05/27 17:04:55;;;;;;;13.32;2.92;;;;;;;13.36;82.44;102152.31;13105733;22;20106;-87
2021/05/27 17:10:49;;;;;;;;;;;;;;;;;;;;;
2021/05/27 17:16:10;;;;;;;9.10;3.03;;;;;;;12.52;80.97;102028.16;13110172;22;20603;-83
2021/05/27 17:21:34;;;;;;;11.63;3.30;;;;;;;12.93;79.78;102020.00;13129010;22;20010;-80
2021/05/27 17:27:02;;;;;;;10.88;2.33;;;;;;;13.49;76.38;102064.19;13132221;22;20456;-86
2021/05/27 17:32:06;;;;;;;18.55;3.40;;;;;;;13.68;75.57;102076.28;13137195;22;20002;-77
2021/05/27 17:37:06;;;;;;;11.75;2.30;;;;;;;12.93;77.79;102009.13;13160151;22;20053;-77
2021/05/27 17:42:07;;;;;;;15.05;3.38;;;;;;;13.46;77.16;102081.19;13153109;22;20448;-78
2021/05/27 17:47:08;;;;;;;12.15;2.80;;;;;;;12.99;77.08;102011.25;13122819;22;20098;-76
2021/05/27 17:52:09;;;;;;;11.35;3.03;;;;;;;13.50;77.79;102087.50;13154630;22;20006;-77
2021/05/27 17:57:13;;;;;;;7.15;2.38;;;;;;;13.75;76.31;102103.63;13160470;22;20018;-79
2021/05/27 18:02:16;;;;;;;9.48;2.40;;;;;;;13.69;74.46;102115.94;13156702;22;20002;-76
2021/05/27 18:07:17;;;;;;;6.05;1.90;;;;;;;13.62;75.96;102148.34;13158196;22;20408;-79
2021/05/27 18:12:17;;;;;;;6.35;1.95;;;;;;;13.37;76.48;102126.72;13158857;22;20022;-77
2021/05/27 18:17:18;;;;;;;7.05;1.80;;;;;;;13.35;77.06;102134.41;13132494;22;20006;-77
2021/05/27 18:22:18;;;;;;;4.57;1.60;;;;;;;13.26;77.72;102120.16;13157699;22;20017;-77
2021/05/27 18:27:19;;;;;;;5.65;1.90;;;;;;;13.31;77.83;102176.97;13155150;22;20010;-76
2021/05/27 18:32:20;;;;;;;12.02;3.38;;;;;;;13.17;77.96;102157.53;13156142;22;20063;-78
2021/05/27 18:37:21;;;;;;;10.48;2.33;;;;;;;13.16;78.81;102170.31;13156231;22;20007;-77
2021/05/27 18:42:23;;;;;;;12.15;2.42;;;;;;;13.01;79.88;102174.56;13159414;22;20039;-76
2021/05/27 18:47:24;;;;;;;9.90;2.25;;;;;;;13.01;79.69;102169.13;13153665;22;20010;-77
2021/05/27 18:52:24;;;;;;;9.02;2.40;;;;;;;12.83;81.34;102168.59;13102147;22;20007;-77
2021/05/27 18:57:52;;;;;;;10.38;3.00;;;;;;;12.82;81.89;102177.09;13136301;22;20030;-86
2021/05/27 19:03:02;;;;;;;10.85;2.63;;;;;;;12.55;83.00;102157.66;13109771;22;20341;-83
2021/05/27 19:08:10;;;;;;;10.93;2.35;;;;;;;12.25;84.10;102144.34;13138221;22;20010;-84
2021/05/27 19:13:13;;;;;;;7.22;2.95;;;;;;;11.75;84.53;102072.22;13135643;22;20014;-82
2021/05/27 19:18:32;;;;;;;;;;;;;;;;;;;;;
2021/05/27 19:23:38;;;;;;;8.10;2.53;;;;;;;11.58;84.91;102099.50;13158685;22;20069;-84
2021/05/27 19:28:45;;;;;;;9.60;2.63;;;;;;;11.53;85.70;102113.25;13139336;22;20025;-85
2021/05/27 19:34:06;;;;;;;10.10;2.70;;;;;;;11.20;85.93;102078.88;13137195;22;20321;-85
2021/05/27 19:39:09;;;;;;;11.77;2.85;;;;;;;10.84;85.60;102053.25;13168386;22;20014;-85
2021/05/27 19:44:44;;;;;;;8.90;2.75;;;;;;;11.62;86.18;102197.94;13099607;22;20022;-86
2021/05/27 19:50:30;;;;;;;6.95;2.65;;;;;;;11.05;87.10;102130.88;12969804;22;20015;-87
2021/05/27 19:56:17;;;;;;;;;;;;;;;;;;;;;
2021/05/27 20:01:46;;;;;;;10.00;3.00;;;;;;;10.78;89.48;102138.41;13074197;22;20014;-84
2021/05/27 20:06:55;;;;;;;17.08;4.35;;;;;;;10.69;90.48;102146.56;13133803;22;20003;-84
2021/05/27 20:12:06;;;;;;;;;;;;;;;;;;;;;
2021/05/27 20:17:28;;;;;;;;;;;;;;;;;;;;;
2021/05/27 20:22:52;;;;;;;12.77;6.43;;;;;;;10.26;95.47;102171.09;13119073;22;20110;-87
2021/05/27 20:28:40;;;;;;;14.93;6.30;;;;;;;10.85;96.66;102260.41;13086747;22;20003;-87
2021/05/27 20:33:46;;;;;;;13.98;4.20;;;;;;;10.72;97.78;102264.13;13062472;22;20078;-87
2021/05/27 20:38:50;;;;;;;12.13;4.55;;;;;;;10.66;98.79;102260.03;13079187;22;20021;-89
2021/05/27 20:43:53;;;;;;;10.43;4.13;;;;;;;9.55;98.72;102110.28;13149189;22;20018;-84
2021/05/27 20:48:56;;;;;;;14.23;4.25;;;;;;;10.32;99.72;102256.31;13174624;22;20013;-85
2021/05/27 20:53:57;;;;;;;12.27;3.65;;;;;;;9.22;99.67;102094.63;13118345;22;20014;-84
2021/05/27 20:58:58;;;;;;;13.57;3.80;;;;;;;9.66;100.00;102181.72;13171903;22;19999;-84
2021/05/27 21:03:58;;;;;;;11.52;5.00;;;;;;;10.20;100.00;102265.03;13171063;22;20168;-85
2021/05/27 21:08:58;;;;;;;12.90;5.18;;;;;;;10.14;100.00;102260.94;13146081;22;20002;-85
2021/05/27 21:13:59;;;;;;;8.95;3.60;;;;;;;10.26;100.00;102300.81;13171395;22;20089;-83
2021/05/27 21:19:07;;;;;;;13.50;4.45;;;;;;;9.93;100.00;102255.41;13142885;22;20010;-85
2021/05/27 21:24:12;;;;;;;12.77;4.00;;;;;;;9.96;100.00;102268.28;13169676;22;20006;-82
2021/05/27 21:29:22;;;;;;;;;;;;;;;;;;;;;
2021/05/27 21:34:38;;;;;;;17.90;4.57;;;;;;;9.27;100.00;102212.38;13153985;22;20006;-87
2021/05/27 21:39:48;;;;;;;17.30;4.53;;;;;;;9.43;100.00;102226.19;13153774;22;20492;-86
2021/05/27 21:45:19;;;;;;;;;;;;;;;;;;;;;
2021/05/27 21:50:37;;;;;;;9.77;4.78;;;;;;;8.62;100.00;102170.84;13170551;22;20011;-86
2021/05/27 21:55:42;;;;;;;12.45;4.88;;;;;;;8.65;100.00;102175.63;13139879;22;20355;-84
2021/05/27 22:01:07;;;;;;;;;;;;;;;;;;;;;
2021/05/27 22:06:52;;;;;;;14.90;5.15;;;;;;;8.12;100.00;102125.31;13120296;22;20057;-85
2021/05/27 22:12:24;;;;;;;13.87;6.77;;;;;;;8.00;100.00;102134.78;13095194;22;20046;-85
2021/05/27 22:18:07;;;;;;;;;;;;;;;;;;;;;
2021/05/27 22:24:06;;;;;;;17.83;5.47;;;;;;;9.03;100.00;102304.53;13053834;22;20221;-85
2021/05/27 22:29:32;;;;;;;14.35;5.78;;;;;;;7.94;100.00;102152.16;13164659;22;20002;-85
2021/05/27 22:35:03;;;;;;;;;;;;;;;;;;;;;
2021/05/27 22:40:19;;;;;;;12.48;5.50;;;;;;;8.58;100.00;102266.91;13170813;22;20814;-85
2021/05/27 22:45:38;;;;;;;14.40;5.73;;;;;;;8.33;100.00;102236.81;13102429;22;20420;-86
2021/05/27 22:51:17;;;;;;;17.75;6.40;;;;;;;7.84;100.00;102190.13;13102447;22;20011;-86
2021/05/27 22:56:52;;;;;;;;;;;;;;;;;;;;;
2021/05/27 23:02:29;;;;;;;;;;;;;;;;;;;;;
2021/05/27 23:08:09;;;;;;;;;;;;;;;;;;;;;
2021/05/27 23:13:55;;;;;;;15.13;5.00;;;;;;;8.38;100.00;102333.69;13067485;22;20027;-86
2021/05/27 23:19:27;;;;;;;11.07;5.07;;;;;;;8.34;100.00;102338.09;13105875;22;20302;-86
2021/05/27 23:25:19;;;;;;;13.20;5.68;;;;;;;7.37;100.00;102205.75;13026245;22;20445;-85
2021/05/27 23:31:01;;;;;;;;;;;;;;;;;;;;;
2021/05/27 23:36:31;;;;;;;11.95;5.50;;;;;;;7.31;100.00;102205.06;13096206;22;20002;-84
2021/05/27 23:42:24;;;;;;;13.52;5.30;;;;;;;7.08;100.00;102163.91;13043571;22;20014;-84
2021/05/27 23:48:14;;;;;;;13.48;5.70;;;;;;;8.04;100.00;102324.28;13097924;22;20210;-84
2021/05/27 23:53:17;;;;;;;12.70;6.00;;;;;;;7.59;100.00;102264.97;13093961;22;20463;-85
